MHTG/TGU METAR and TAF weather

Enter ICAO airport designator
Station Type Date Time Source
MHTG METAR 2021/01/16 03:00 UTC NOAA

MHTG 160300Z 24004KT 9999 FEW030 19/15 Q1019 A3009 NOSIG


Station Type Date Time Source
MHTG Decoded METAR 2021/01/16 03:00 UTC NOAA

Tegucigalpa, Honduras (MHTG) 14-03N 087-13W 1007M
Jan 15, 2021 - 10:00 PM EST / 2021.01.16 0300 UTC
Wind: from the WSW (240 degrees) at 5 MPH (4 KT):0
Visibility: greater than 7 mile(s):0
Sky conditions: mostly clear
Temperature: 66 F (19 C)
Dew Point: 59 F (15 C)
Relative Humidity: 77%
Pressure (altimeter): 30.09 in. Hg (1018 hPa)
ob: MHTG 160300Z 24004KT 9999 FEW030 19/15 Q1019 A3009 NOSIG
cycle: 3

Station Type Date Time Source
MHTG TAF 2021/01/15 18:59 UTC NOAA

TAF MHTG 151630Z 1518/1618 02008KT 9999 SCT030 TX26/1520Z TN17/1612Z
BECMG 1523/1601 BKN028
BECMG 1610/1612 VRB02KT 7000 VCSH FEW008 BKN024
BECMG 1615/1617 02014KT 9999 NSW FEW014 BKN028

Example: see airport list